createdAt,value
2023-02-05T00:01:34.793Z,9.70
2023-02-05T00:04:01.274Z,9.80
2023-02-05T00:06:27.738Z,9.70
2023-02-05T00:08:54.211Z,9.80
2023-02-05T00:11:20.668Z,9.70
2023-02-05T00:13:47.144Z,9.80
2023-02-05T00:16:13.688Z,9.70
2023-02-05T00:18:40.175Z,9.80
2023-02-05T00:21:07.498Z,9.80
2023-02-05T00:23:33.993Z,9.80
2023-02-05T00:26:00.467Z,9.80
2023-02-05T00:28:26.943Z,9.70
2023-02-05T00:30:53.489Z,9.80
2023-02-05T00:33:20.026Z,9.80
2023-02-05T00:35:46.524Z,9.80
2023-02-05T00:38:13.426Z,9.80
2023-02-05T00:40:39.918Z,9.70
2023-02-05T00:43:06.403Z,9.80
2023-02-05T00:45:33.066Z,9.80
2023-02-05T00:47:59.708Z,9.80
2023-02-05T00:50:26.207Z,9.80
2023-02-05T00:52:52.670Z,9.80
2023-02-05T00:55:19.190Z,9.80
2023-02-05T00:57:45.654Z,9.80
2023-02-05T01:00:12.180Z,9.80
2023-02-05T01:02:38.687Z,9.80
2023-02-05T01:05:05.170Z,9.80
2023-02-05T01:07:31.628Z,9.80
2023-02-05T01:09:58.110Z,9.80
2023-02-05T01:12:24.599Z,9.80
2023-02-05T01:14:55.594Z,9.70
2023-02-05T01:17:22.077Z,9.80
2023-02-05T01:19:48.550Z,9.80
2023-02-05T01:22:15.017Z,9.80
2023-02-05T01:24:41.490Z,9.80
2023-02-05T01:27:07.964Z,9.80
2023-02-05T01:29:34.443Z,9.80
2023-02-05T01:32:00.907Z,9.80
2023-02-05T01:34:27.387Z,9.80
2023-02-05T01:36:53.870Z,9.80
2023-02-05T01:39:20.329Z,9.80
2023-02-05T01:41:49.530Z,9.80
2023-02-05T01:44:15.993Z,9.80
2023-02-05T01:46:42.539Z,9.80
2023-02-05T01:49:09.037Z,9.80
2023-02-05T01:51:35.516Z,9.80
2023-02-05T01:54:01.996Z,9.80
2023-02-05T01:56:28.452Z,9.80
2023-02-05T01:58:54.929Z,9.80
2023-02-05T02:01:21.422Z,9.80
2023-02-05T02:03:47.914Z,9.80
2023-02-05T02:06:14.390Z,9.80
2023-02-05T02:08:40.860Z,9.80
2023-02-05T02:11:07.339Z,9.80
2023-02-05T02:13:33.832Z,9.80
2023-02-05T02:16:00.415Z,9.80
2023-02-05T02:18:26.934Z,9.80
2023-02-05T02:20:53.448Z,9.80
2023-02-05T02:23:19.912Z,9.80
2023-02-05T02:25:46.398Z,9.80
2023-02-05T02:28:12.873Z,9.80
2023-02-05T02:30:39.445Z,9.80
2023-02-05T02:33:05.962Z,9.80
2023-02-05T02:35:32.797Z,9.80
2023-02-05T02:37:59.474Z,9.80
2023-02-05T02:40:25.952Z,9.80
2023-02-05T02:42:52.439Z,9.80
2023-02-05T02:45:18.922Z,9.80
2023-02-05T02:47:45.402Z,9.80
2023-02-05T02:50:13.546Z,9.80
2023-02-05T02:52:40.024Z,9.80
2023-02-05T02:55:06.593Z,9.80
2023-02-05T02:57:33.110Z,9.80
2023-02-05T03:00:01.573Z,9.80
2023-02-05T03:02:28.057Z,9.80
2023-02-05T03:04:54.538Z,9.80
2023-02-05T03:07:21.094Z,9.80
2023-02-05T03:09:47.586Z,9.80
2023-02-05T03:12:14.066Z,9.80
2023-02-05T03:14:40.548Z,9.80
2023-02-05T03:17:07.033Z,9.80
2023-02-05T03:19:33.499Z,9.80
2023-02-05T03:21:59.972Z,9.80
2023-02-05T03:24:26.473Z,9.80
2023-02-05T03:26:52.942Z,9.80
2023-02-05T03:29:19.427Z,9.80
2023-02-05T03:31:45.936Z,9.80
2023-02-05T03:34:12.454Z,9.80
2023-02-05T03:36:38.916Z,9.80
2023-02-05T03:39:05.394Z,9.80
2023-02-05T03:41:31.876Z,9.80
2023-02-05T03:43:58.355Z,9.80
2023-02-05T03:46:24.824Z,9.80
2023-02-05T03:48:51.294Z,9.80
2023-02-05T03:51:17.777Z,9.80
2023-02-05T03:53:44.260Z,9.80
2023-02-05T03:56:10.747Z,9.80
2023-02-05T03:58:37.220Z,9.80
2023-02-05T04:01:03.709Z,9.80
2023-02-05T04:03:30.226Z,9.80
2023-02-05T04:05:56.693Z,9.80
2023-02-05T04:08:23.161Z,9.80
2023-02-05T04:10:49.630Z,9.80
2023-02-05T04:13:16.102Z,9.80
2023-02-05T04:15:43.631Z,9.80
2023-02-05T04:18:10.135Z,9.80
2023-02-05T04:20:36.623Z,9.80
2023-02-05T04:23:03.102Z,9.80
2023-02-05T04:25:29.588Z,9.80
2023-02-05T04:27:56.086Z,9.80
2023-02-05T04:30:22.590Z,9.80
2023-02-05T04:32:49.063Z,9.80
2023-02-05T04:35:19.680Z,9.80
2023-02-05T04:37:46.143Z,9.80
2023-02-05T04:40:12.616Z,9.80
2023-02-05T04:42:39.069Z,9.80
2023-02-05T04:45:05.546Z,9.80
2023-02-05T04:47:32.015Z,9.80
2023-02-05T04:49:58.481Z,9.80
2023-02-05T04:52:24.948Z,9.80
2023-02-05T04:54:55.686Z,9.80
2023-02-05T04:57:22.153Z,9.80
2023-02-05T04:59:48.618Z,9.80
2023-02-05T05:02:15.123Z,9.80
2023-02-05T05:04:43.163Z,9.80
2023-02-05T05:07:09.761Z,9.80
2023-02-05T05:09:36.231Z,9.80
2023-02-05T05:12:02.682Z,9.80
2023-02-05T05:14:29.157Z,9.80
2023-02-05T05:16:55.634Z,9.80
2023-02-05T05:19:22.116Z,9.80
2023-02-05T05:21:48.588Z,9.80
2023-02-05T05:24:15.101Z,9.80
2023-02-05T05:26:41.587Z,9.80
2023-02-05T05:29:13.727Z,9.80
2023-02-05T05:31:40.220Z,9.80
2023-02-05T05:34:06.743Z,9.90
2023-02-05T05:36:33.213Z,9.80
2023-02-05T05:38:59.717Z,9.80
2023-02-05T05:41:26.185Z,9.80
2023-02-05T05:43:52.688Z,9.80
2023-02-05T05:46:19.165Z,9.80
2023-02-05T05:48:45.668Z,9.80
2023-02-05T05:51:13.718Z,9.80
2023-02-05T05:53:40.182Z,9.80
2023-02-05T05:56:06.674Z,9.80
2023-02-05T05:58:33.163Z,9.80
2023-02-05T06:00:59.629Z,9.80
2023-02-05T06:03:26.108Z,9.80
2023-02-05T06:05:52.581Z,9.80
2023-02-05T06:08:19.054Z,9.80
2023-02-05T06:10:45.532Z,9.80
2023-02-05T06:13:12.013Z,9.80
2023-02-05T06:15:38.678Z,9.80
2023-02-05T06:18:05.180Z,9.80
2023-02-05T06:20:31.668Z,9.90
2023-02-05T06:22:58.150Z,9.80
2023-02-05T06:25:24.683Z,9.80
2023-02-05T06:27:51.213Z,9.80
2023-02-05T06:30:17.759Z,9.80
2023-02-05T06:32:44.216Z,9.80
2023-02-05T06:35:10.709Z,9.80
2023-02-05T06:37:48.285Z,9.80
2023-02-05T06:40:14.804Z,9.80
2023-02-05T06:42:41.294Z,9.80
2023-02-05T06:45:07.778Z,9.80
2023-02-05T06:47:34.251Z,9.80
2023-02-05T06:50:00.715Z,9.80
2023-02-05T06:52:27.192Z,9.80
2023-02-05T06:54:53.664Z,9.80
2023-02-05T06:57:20.135Z,9.80
2023-02-05T06:59:46.608Z,9.80
2023-02-05T07:02:13.068Z,9.80
2023-02-05T07:04:39.565Z,9.80
2023-02-05T07:07:06.046Z,9.80
2023-02-05T07:09:32.541Z,9.80
2023-02-05T07:11:59.031Z,9.80
2023-02-05T07:14:25.486Z,9.80
2023-02-05T07:16:51.956Z,9.80
2023-02-05T07:19:18.430Z,9.80
2023-02-05T07:21:44.902Z,9.80
2023-02-05T07:24:11.406Z,9.80
2023-02-05T07:26:37.885Z,9.80
2023-02-05T07:29:04.510Z,9.80
2023-02-05T07:31:31.040Z,9.80
2023-02-05T07:33:57.547Z,9.80
2023-02-05T07:36:24.032Z,9.80
2023-02-05T07:38:50.492Z,9.80
2023-02-05T07:41:19.840Z,9.80
2023-02-05T07:43:46.308Z,9.80
2023-02-05T07:46:12.809Z,9.90
2023-02-05T07:48:39.297Z,9.80
2023-02-05T07:51:05.766Z,9.90
2023-02-05T07:53:32.252Z,9.90
2023-02-05T07:56:01.823Z,9.80
2023-02-05T07:58:28.285Z,9.80
2023-02-05T08:00:54.770Z,9.80
2023-02-05T08:03:23.321Z,9.80
2023-02-05T08:05:49.884Z,9.80
2023-02-05T08:08:16.345Z,9.80
2023-02-05T08:10:42.851Z,9.80
2023-02-05T08:13:09.313Z,9.80
2023-02-05T08:15:35.885Z,9.80
2023-02-05T08:18:07.864Z,9.80
2023-02-05T08:20:34.345Z,9.80
2023-02-05T08:23:00.820Z,9.90
2023-02-05T08:25:27.284Z,9.80
2023-02-05T08:27:53.792Z,9.80
2023-02-05T08:30:20.297Z,9.80
2023-02-05T08:32:46.784Z,9.80
2023-02-05T08:35:13.257Z,9.80
2023-02-05T08:37:39.734Z,9.80
2023-02-05T08:40:06.214Z,9.80
2023-02-05T08:42:32.715Z,9.80
2023-02-05T08:44:59.197Z,9.80
2023-02-05T08:47:25.889Z,9.80
2023-02-05T08:49:52.349Z,9.80
2023-02-05T08:52:19.876Z,9.90
2023-02-05T08:54:46.349Z,9.80
2023-02-05T08:57:12.841Z,9.80
2023-02-05T08:59:39.318Z,9.80
2023-02-05T09:02:05.831Z,9.80
2023-02-05T09:04:32.399Z,9.80
2023-02-05T09:06:58.953Z,9.80
2023-02-05T09:09:25.418Z,9.80
2023-02-05T09:11:51.911Z,9.80
2023-02-05T09:14:18.388Z,9.80
2023-02-05T09:16:44.922Z,9.80
2023-02-05T09:19:11.380Z,9.80
2023-02-05T09:21:37.858Z,9.80
2023-02-05T09:24:04.320Z,9.80
2023-02-05T09:26:30.801Z,9.80
2023-02-05T09:28:57.273Z,9.80
2023-02-05T09:31:23.825Z,9.90
2023-02-05T09:33:50.371Z,9.80
2023-02-05T09:36:16.849Z,9.80
2023-02-05T09:38:43.336Z,9.80
2023-02-05T09:41:09.836Z,9.80
2023-02-05T09:43:36.323Z,9.80
2023-02-05T09:46:02.818Z,9.80
2023-02-05T09:48:29.332Z,9.80
2023-02-05T09:50:57.762Z,9.80
2023-02-05T09:53:24.499Z,9.80
2023-02-05T09:55:50.962Z,9.80
2023-02-05T09:58:17.438Z,9.80
2023-02-05T10:00:43.905Z,9.80
2023-02-05T10:03:10.397Z,9.80
2023-02-05T10:05:36.849Z,9.80
2023-02-05T10:08:03.325Z,9.80
2023-02-05T10:10:29.793Z,9.80
2023-02-05T10:12:56.288Z,9.80
2023-02-05T10:15:22.758Z,9.80
2023-02-05T10:17:49.266Z,9.80
2023-02-05T10:20:15.763Z,9.80
2023-02-05T10:22:42.264Z,9.80
2023-02-05T10:25:08.744Z,9.80
2023-02-05T10:27:35.230Z,9.80
2023-02-05T10:30:01.714Z,9.80
2023-02-05T10:32:28.209Z,9.80
2023-02-05T10:34:54.689Z,9.80
2023-02-05T10:37:21.172Z,9.80
2023-02-05T10:39:47.654Z,9.80
2023-02-05T10:42:14.126Z,9.80
2023-02-05T10:44:40.617Z,9.80
2023-02-05T10:47:07.276Z,9.80
2023-02-05T10:49:33.813Z,9.80
2023-02-05T10:52:00.265Z,9.80
2023-02-05T10:54:26.725Z,9.80
2023-02-05T10:56:53.211Z,9.80
2023-02-05T10:59:19.697Z,9.80
2023-02-05T11:01:46.192Z,9.80
2023-02-05T11:04:12.690Z,9.80
2023-02-05T11:06:39.145Z,9.80
2023-02-05T11:09:05.624Z,9.80
2023-02-05T11:11:32.121Z,9.80
2023-02-05T11:13:58.612Z,9.80
2023-02-05T11:16:25.104Z,9.80
2023-02-05T11:18:51.624Z,9.80
2023-02-05T11:21:18.097Z,9.80
2023-02-05T11:23:44.589Z,9.80
2023-02-05T11:26:11.049Z,9.80
2023-02-05T11:28:37.525Z,9.80
2023-02-05T11:31:04.028Z,9.80
2023-02-05T11:33:30.524Z,9.80
2023-02-05T11:35:57.009Z,9.80
2023-02-05T11:38:23.494Z,9.80
2023-02-05T11:40:49.965Z,9.80
2023-02-05T11:43:16.427Z,9.80
2023-02-05T11:45:42.903Z,9.80
2023-02-05T11:48:09.377Z,9.80
2023-02-05T11:50:36.163Z,9.80
2023-02-05T11:53:02.786Z,9.80
2023-02-05T11:55:29.260Z,9.90
2023-02-05T11:57:55.734Z,9.80
2023-02-05T12:00:22.208Z,9.80
2023-02-05T12:02:48.705Z,9.80
2023-02-05T12:05:15.212Z,9.80
2023-02-05T12:07:41.672Z,9.80
2023-02-05T12:10:08.152Z,9.80
2023-02-05T12:12:34.631Z,9.80
2023-02-05T12:15:01.104Z,9.80
2023-02-05T12:17:27.578Z,9.80
2023-02-05T12:19:54.090Z,9.80
2023-02-05T12:22:20.568Z,9.80
2023-02-05T12:24:47.047Z,9.80
2023-02-05T12:27:13.530Z,9.80
2023-02-05T12:29:39.982Z,9.80
2023-02-05T12:32:06.470Z,9.80
2023-02-05T12:34:32.946Z,9.80
2023-02-05T12:36:59.424Z,9.80
2023-02-05T12:39:25.901Z,9.80
2023-02-05T12:41:52.390Z,9.80
2023-02-05T12:44:18.887Z,9.90
2023-02-05T12:46:45.356Z,10.10
2023-02-05T12:49:11.828Z,10.20
2023-02-05T12:51:38.302Z,10.30
2023-02-05T12:54:04.776Z,10.40
2023-02-05T12:56:31.305Z,10.50
2023-02-05T12:58:57.758Z,10.70
2023-02-05T13:01:24.288Z,10.80
2023-02-05T13:03:50.781Z,10.70
2023-02-05T13:06:17.267Z,10.70
2023-02-05T13:08:43.749Z,10.70
2023-02-05T13:11:10.231Z,10.60
2023-02-05T13:13:36.704Z,10.50
2023-02-05T13:16:03.181Z,10.50
2023-02-05T13:18:32.062Z,10.50
2023-02-05T13:21:02.116Z,10.40
2023-02-05T13:23:28.599Z,10.40
2023-02-05T13:25:55.075Z,10.40
2023-02-05T13:28:21.575Z,10.40
2023-02-05T13:30:48.099Z,10.50
2023-02-05T13:33:14.615Z,10.60
2023-02-05T13:35:41.094Z,10.80
2023-02-05T13:38:07.557Z,10.90
2023-02-05T13:40:34.327Z,11.00
2023-02-05T13:43:01.015Z,11.00
2023-02-05T13:45:27.486Z,11.00
2023-02-05T13:47:53.955Z,11.00
2023-02-05T13:50:20.424Z,10.90
2023-02-05T13:52:46.888Z,10.90
2023-02-05T13:57:57.498Z,10.80
2023-02-05T14:00:23.980Z,10.70
2023-02-05T14:02:50.459Z,10.70
2023-02-05T14:05:16.923Z,10.70
2023-02-05T14:07:43.390Z,10.60
2023-02-05T14:10:09.862Z,10.60
2023-02-05T14:12:36.337Z,10.50
2023-02-05T14:15:02.809Z,10.50
2023-02-05T14:17:29.293Z,10.60
2023-02-05T14:19:55.777Z,10.60
2023-02-05T14:22:22.253Z,10.70
2023-02-05T14:24:50.128Z,10.80
2023-02-05T14:27:16.607Z,11.00
2023-02-05T14:29:43.082Z,11.10
2023-02-05T14:32:09.561Z,11.20
2023-02-05T14:34:36.029Z,11.10
2023-02-05T14:37:02.500Z,11.10
2023-02-05T14:39:28.999Z,11.00
2023-02-05T14:41:56.182Z,11.00
2023-02-05T14:44:22.652Z,10.90
2023-02-05T14:46:49.128Z,10.90
2023-02-05T14:49:15.594Z,10.80
2023-02-05T14:51:42.063Z,10.80
2023-02-05T14:54:08.545Z,10.80
2023-02-05T14:56:35.032Z,10.70
2023-02-05T14:59:02.609Z,10.70
2023-02-05T15:01:29.106Z,10.70
2023-02-05T15:03:55.590Z,10.70
2023-02-05T15:06:22.070Z,10.70
2023-02-05T15:08:48.558Z,10.70
2023-02-05T15:11:15.032Z,10.80
2023-02-05T15:13:41.498Z,11.00
2023-02-05T15:16:08.006Z,11.10
2023-02-05T15:18:34.507Z,11.20
2023-02-05T15:21:02.195Z,11.20
2023-02-05T15:23:28.659Z,11.20
2023-02-05T15:25:55.139Z,11.20
2023-02-05T15:28:21.627Z,11.10
2023-02-05T15:30:48.233Z,11.10
2023-02-05T15:33:14.743Z,11.10
2023-02-05T15:35:41.217Z,11.10
2023-02-05T15:38:07.711Z,11.00
2023-02-05T15:40:34.215Z,11.00
2023-02-05T15:43:00.705Z,11.00
2023-02-05T15:45:27.218Z,10.90
2023-02-05T15:47:53.714Z,10.90
2023-02-05T15:50:20.183Z,10.90
2023-02-05T15:52:46.647Z,10.90
2023-02-05T15:55:13.147Z,10.80
2023-02-05T15:57:39.635Z,10.90
2023-02-05T16:00:06.120Z,10.90
2023-02-05T16:02:32.666Z,10.90
2023-02-05T16:04:59.173Z,10.80
2023-02-05T16:07:25.648Z,10.80
2023-02-05T16:09:56.420Z,10.80
2023-02-05T16:12:22.931Z,10.80
2023-02-05T16:14:49.407Z,10.90
2023-02-05T16:17:20.260Z,10.90
2023-02-05T16:19:46.744Z,11.10
2023-02-05T16:22:13.207Z,11.20
2023-02-05T16:24:39.654Z,11.20
2023-02-05T16:27:06.112Z,11.20
2023-02-05T16:29:46.173Z,11.20
2023-02-05T16:32:13.730Z,11.20
2023-02-05T16:34:40.208Z,11.10
2023-02-05T16:37:07.483Z,11.10
2023-02-05T16:39:34.272Z,11.00
2023-02-05T16:42:00.736Z,11.00
2023-02-05T16:44:27.200Z,10.90
2023-02-05T16:46:53.677Z,10.90
2023-02-05T16:49:20.153Z,10.90
2023-02-05T16:51:46.619Z,10.90
2023-02-05T16:54:13.086Z,10.90
2023-02-05T16:59:30.289Z,10.80
2023-02-05T17:01:56.795Z,10.80
2023-02-05T17:04:23.278Z,10.80
2023-02-05T17:06:49.809Z,10.80
2023-02-05T17:09:16.270Z,10.80
2023-02-05T17:11:42.735Z,10.80
2023-02-05T17:14:09.205Z,10.70
2023-02-05T17:16:35.723Z,10.70
2023-02-05T17:19:02.228Z,10.70
2023-02-05T17:21:28.695Z,10.70
2023-02-05T17:23:55.161Z,10.70
2023-02-05T17:26:21.646Z,10.70
2023-02-05T17:28:48.138Z,10.70
2023-02-05T17:31:14.691Z,10.70
2023-02-05T17:33:41.231Z,10.60
2023-02-05T17:36:07.710Z,10.60
2023-02-05T17:38:34.195Z,10.60
2023-02-05T17:41:03.802Z,10.70
2023-02-05T17:43:30.272Z,10.60
2023-02-05T17:45:56.835Z,10.60
2023-02-05T17:48:23.404Z,10.60
2023-02-05T17:50:49.884Z,10.50
2023-02-05T17:53:16.364Z,10.50
2023-02-05T17:55:42.842Z,10.50
2023-02-05T17:58:09.333Z,10.50
2023-02-05T18:00:36.046Z,10.50
2023-02-05T18:03:02.696Z,10.50
2023-02-05T18:05:29.179Z,10.50
2023-02-05T18:07:55.663Z,10.50
2023-02-05T18:10:23.287Z,10.50
2023-02-05T18:12:49.857Z,10.40
2023-02-05T18:15:16.318Z,10.40
2023-02-05T18:17:42.778Z,10.50
2023-02-05T18:20:09.261Z,10.50
2023-02-05T18:22:35.725Z,10.50
2023-02-05T18:25:02.191Z,10.50
2023-02-05T18:27:28.660Z,10.40
2023-02-05T18:29:55.148Z,10.40
2023-02-05T18:32:21.628Z,10.40
2023-02-05T18:34:48.118Z,10.40
2023-02-05T18:37:14.596Z,10.40
2023-02-05T18:39:41.061Z,10.40
2023-02-05T18:42:07.516Z,10.40
2023-02-05T18:44:34.003Z,10.40
2023-02-05T18:47:00.466Z,10.30
2023-02-05T18:49:26.947Z,10.30
2023-02-05T18:51:56.342Z,10.30
2023-02-05T18:54:22.846Z,10.30
2023-02-05T18:56:50.346Z,10.30
2023-02-05T18:59:16.821Z,10.30
2023-02-05T19:01:43.295Z,10.20
2023-02-05T19:04:09.773Z,10.30
2023-02-05T19:06:36.277Z,10.20
2023-02-05T19:09:02.737Z,10.30
2023-02-05T19:11:29.232Z,10.30
2023-02-05T19:13:55.693Z,10.20
2023-02-05T19:16:22.150Z,10.30
2023-02-05T19:18:48.624Z,10.20
2023-02-05T19:21:15.596Z,10.20
2023-02-05T19:23:42.072Z,10.30
2023-02-05T19:26:08.558Z,10.30
2023-02-05T19:28:35.020Z,10.30
2023-02-05T19:31:01.627Z,10.30
2023-02-05T19:33:28.143Z,10.30
2023-02-05T19:35:54.620Z,10.30
2023-02-05T19:38:21.080Z,10.20
2023-02-05T19:40:47.557Z,10.30
2023-02-05T19:43:14.015Z,10.20
2023-02-05T19:45:40.476Z,10.20
2023-02-05T19:48:06.940Z,10.20
2023-02-05T19:50:33.560Z,10.20
2023-02-05T19:53:00.188Z,10.30
2023-02-05T19:55:26.675Z,10.20
2023-02-05T19:57:53.154Z,10.20
2023-02-05T20:00:19.651Z,10.30
2023-02-05T20:02:46.132Z,10.20
2023-02-05T20:05:12.679Z,10.20
2023-02-05T20:07:39.162Z,10.30
2023-02-05T20:10:05.667Z,10.20
2023-02-05T20:12:32.141Z,10.20
2023-02-05T20:14:58.647Z,10.20
2023-02-05T20:17:25.121Z,10.20
2023-02-05T20:19:55.168Z,10.20
2023-02-05T20:22:23.718Z,10.20
2023-02-05T20:24:50.176Z,10.20
2023-02-05T20:27:16.657Z,10.20
2023-02-05T20:29:43.136Z,10.20
2023-02-05T20:32:09.630Z,10.20
2023-02-05T20:34:36.393Z,10.10
2023-02-05T20:37:02.914Z,10.10
2023-02-05T20:39:29.401Z,10.10
2023-02-05T20:41:55.876Z,10.10
2023-02-05T20:44:26.595Z,10.10
2023-02-05T20:46:56.495Z,10.10
2023-02-05T20:49:22.969Z,10.20
2023-02-05T20:51:49.449Z,10.10
2023-02-05T20:54:15.922Z,10.20
2023-02-05T20:56:42.409Z,10.10
2023-02-05T20:59:08.870Z,10.10
2023-02-05T21:01:35.350Z,10.10
2023-02-05T21:04:01.866Z,10.10
2023-02-05T21:06:28.332Z,10.10
2023-02-05T21:08:54.785Z,10.10
2023-02-05T21:11:21.254Z,10.10
2023-02-05T21:13:47.716Z,10.10
2023-02-05T21:16:14.318Z,10.10
2023-02-05T21:18:40.825Z,10.10
2023-02-05T21:21:07.309Z,10.10
2023-02-05T21:23:33.792Z,10.10
2023-02-05T21:26:00.273Z,10.10
2023-02-05T21:28:26.745Z,10.20
2023-02-05T21:30:53.267Z,10.10
2023-02-05T21:33:19.735Z,10.10
2023-02-05T21:35:46.222Z,10.10
2023-02-05T21:38:12.699Z,10.10
2023-02-05T21:40:39.188Z,10.10
2023-02-05T21:43:05.667Z,10.10
2023-02-05T21:45:32.238Z,10.10
2023-02-05T21:47:58.750Z,10.10
2023-02-05T21:50:25.260Z,10.10
2023-02-05T21:52:51.729Z,10.10
2023-02-05T21:55:18.222Z,10.10
2023-02-05T21:57:44.673Z,10.10
2023-02-05T22:00:11.180Z,10.10
2023-02-05T22:02:37.662Z,10.10
2023-02-05T22:05:04.120Z,10.10
2023-02-05T22:07:30.591Z,10.10
2023-02-05T22:09:57.074Z,10.10
2023-02-05T22:12:23.569Z,10.10
2023-02-05T22:14:50.045Z,10.00
2023-02-05T22:17:16.504Z,10.10
2023-02-05T22:19:42.963Z,10.00
2023-02-05T22:22:14.570Z,10.00
2023-02-05T22:24:41.045Z,10.00
2023-02-05T22:27:07.718Z,10.00
2023-02-05T22:29:34.196Z,10.00
2023-02-05T22:32:00.740Z,10.10
2023-02-05T22:34:27.238Z,10.00
2023-02-05T22:36:53.730Z,10.00
2023-02-05T22:39:20.205Z,10.00
2023-02-05T22:41:46.673Z,10.00
2023-02-05T22:44:13.132Z,10.00
2023-02-05T22:46:39.620Z,10.10
2023-02-05T22:49:06.121Z,10.00
2023-02-05T22:51:32.608Z,10.00
2023-02-05T22:53:59.071Z,10.10
2023-02-05T22:56:25.545Z,10.10
2023-02-05T22:58:52.036Z,10.10
2023-02-05T23:01:18.559Z,10.10
2023-02-05T23:03:45.075Z,10.00
2023-02-05T23:06:11.588Z,10.00
2023-02-05T23:08:38.076Z,10.00
2023-02-05T23:11:04.568Z,10.00
2023-02-05T23:13:31.064Z,10.00
2023-02-05T23:16:02.580Z,10.00
2023-02-05T23:18:29.041Z,10.00
2023-02-05T23:20:55.553Z,10.00
2023-02-05T23:23:22.040Z,10.00
2023-02-05T23:25:48.534Z,10.00
2023-02-05T23:28:15.021Z,10.00
2023-02-05T23:30:41.594Z,10.00
2023-02-05T23:33:08.097Z,10.00
2023-02-05T23:35:34.814Z,10.00
2023-02-05T23:38:01.453Z,10.00
2023-02-05T23:40:27.979Z,10.00
2023-02-05T23:42:54.447Z,10.00
2023-02-05T23:45:20.903Z,10.00
2023-02-05T23:47:50.615Z,10.00
2023-02-05T23:50:17.081Z,10.00
2023-02-05T23:52:43.554Z,10.00
2023-02-05T23:55:10.031Z,10.00
2023-02-05T23:57:36.517Z,10.00
